Terminal Aerodrome Forecast
Issued by NWS Amarillo, TX

Home | Current Version | Previous Version | Text Only | Print | Product List | Glossary On
Versions: 1 2 3 4 5 6 7 8 9 10 11 12 13 14 15 16
154
FTUS44 KAMA 250535
TAFGUY
TAF
KGUY 250535Z 2506/2606 36018G28KT P6SM SCT015 OVC035
      TEMPO 2506/2510 -SHRA OVC015
     FM251000 35018G28KT P6SM SCT015 OVC040
     FM251400 34016G26KT P6SM SKC
     FM260100 VRB06KT P6SM SKC=

USA.gov is the U.S. government's official web portal to all federal, state and local government web resources and services.